sensor_id;sensor_type;location;lat;lon;timestamp;temperature;humidity
67722;SHT31;58309;45.292;11.820;2022-11-09T00:01:36;9.42;92.54
67722;SHT31;58309;45.292;11.820;2022-11-09T00:04:03;9.51;92.02
67722;SHT31;58309;45.292;11.820;2022-11-09T00:06:30;9.57;91.47
67722;SHT31;58309;45.292;11.820;2022-11-09T00:08:56;9.61;91.53
67722;SHT31;58309;45.292;11.820;2022-11-09T00:11:22;9.70;90.63
67722;SHT31;58309;45.292;11.820;2022-11-09T00:13:48;9.71;91.04
67722;SHT31;58309;45.292;11.820;2022-11-09T00:16:16;9.74;90.43
67722;SHT31;58309;45.292;11.820;2022-11-09T00:18:42;9.78;90.55
67722;SHT31;58309;45.292;11.820;2022-11-09T00:21:19;9.81;90.30
67722;SHT31;58309;45.292;11.820;2022-11-09T00:23:45;9.82;90.09
67722;SHT31;58309;45.292;11.820;2022-11-09T00:26:13;9.85;89.79
67722;SHT31;58309;45.292;11.820;2022-11-09T00:28:39;9.89;89.93
67722;SHT31;58309;45.292;11.820;2022-11-09T00:31:08;9.91;90.18
67722;SHT31;58309;45.292;11.820;2022-11-09T00:33:35;9.98;89.63
67722;SHT31;58309;45.292;11.820;2022-11-09T00:36:10;9.99;90.05
67722;SHT31;58309;45.292;11.820;2022-11-09T00:38:37;10.01;89.68
67722;SHT31;58309;45.292;11.820;2022-11-09T00:41:06;10.02;88.77
67722;SHT31;58309;45.292;11.820;2022-11-09T00:43:32;10.05;88.85
67722;SHT31;58309;45.292;11.820;2022-11-09T00:45:58;10.05;88.22
67722;SHT31;58309;45.292;11.820;2022-11-09T00:48:23;10.06;88.60
67722;SHT31;58309;45.292;11.820;2022-11-09T00:50:54;10.06;88.21
67722;SHT31;58309;45.292;11.820;2022-11-09T00:53:20;10.08;88.60
67722;SHT31;58309;45.292;11.820;2022-11-09T00:56:13;10.08;88.19
67722;SHT31;58309;45.292;11.820;2022-11-09T00:58:39;10.10;88.52
67722;SHT31;58309;45.292;11.820;2022-11-09T01:01:16;10.08;88.38
67722;SHT31;58309;45.292;11.820;2022-11-09T01:03:43;10.06;88.43
67722;SHT31;58309;45.292;11.820;2022-11-09T01:06:13;10.05;88.19
67722;SHT31;58309;45.292;11.820;2022-11-09T01:08:39;10.03;88.40
67722;SHT31;58309;45.292;11.820;2022-11-09T01:11:06;10.02;88.21
67722;SHT31;58309;45.292;11.820;2022-11-09T01:13:33;10.06;88.65
67722;SHT31;58309;45.292;11.820;2022-11-09T01:15:58;10.09;88.76
67722;SHT31;58309;45.292;11.820;2022-11-09T01:18:24;10.08;88.41
67722;SHT31;58309;45.292;11.820;2022-11-09T01:20:50;10.08;88.69
67722;SHT31;58309;45.292;11.820;2022-11-09T01:23:17;10.09;87.83
67722;SHT31;58309;45.292;11.820;2022-11-09T01:25:43;10.09;87.63
67722;SHT31;58309;45.292;11.820;2022-11-09T01:28:10;10.09;87.85
67722;SHT31;58309;45.292;11.820;2022-11-09T01:30:38;10.09;86.95
67722;SHT31;58309;45.292;11.820;2022-11-09T01:33:05;10.09;86.44
67722;SHT31;58309;45.292;11.820;2022-11-09T01:35:35;10.06;86.63
67722;SHT31;58309;45.292;11.820;2022-11-09T01:38:02;10.08;86.13
67722;SHT31;58309;45.292;11.820;2022-11-09T01:40:28;10.10;86.89
67722;SHT31;58309;45.292;11.820;2022-11-09T01:42:54;10.16;87.00
67722;SHT31;58309;45.292;11.820;2022-11-09T01:45:28;10.20;86.76
67722;SHT31;58309;45.292;11.820;2022-11-09T01:48:13;10.20;86.77
67722;SHT31;58309;45.292;11.820;2022-11-09T01:50:46;10.26;87.07
67722;SHT31;58309;45.292;11.820;2022-11-09T01:53:17;10.32;87.20
67722;SHT31;58309;45.292;11.820;2022-11-09T01:55:49;10.34;87.39
67722;SHT31;58309;45.292;11.820;2022-11-09T01:58:21;10.33;87.45
67722;SHT31;58309;45.292;11.820;2022-11-09T02:00:48;10.36;88.05
67722;SHT31;58309;45.292;11.820;2022-11-09T02:03:42;10.34;87.18
67722;SHT31;58309;45.292;11.820;2022-11-09T02:06:11;10.39;87.09
67722;SHT31;58309;45.292;11.820;2022-11-09T02:08:39;10.34;87.27
67722;SHT31;58309;45.292;11.820;2022-11-09T02:11:10;10.32;87.16
67722;SHT31;58309;45.292;11.820;2022-11-09T02:13:43;10.29;87.13
67722;SHT31;58309;45.292;11.820;2022-11-09T02:16:12;10.23;87.99
67722;SHT31;58309;45.292;11.820;2022-11-09T02:18:52;10.28;86.96
67722;SHT31;58309;45.292;11.820;2022-11-09T02:21:18;10.28;87.12
67722;SHT31;58309;45.292;11.820;2022-11-09T02:23:45;10.33;87.33
67722;SHT31;58309;45.292;11.820;2022-11-09T02:26:15;10.33;86.83
67722;SHT31;58309;45.292;11.820;2022-11-09T02:28:43;10.36;86.87
67722;SHT31;58309;45.292;11.820;2022-11-09T02:31:10;10.37;86.40
67722;SHT31;58309;45.292;11.820;2022-11-09T02:36:15;10.39;86.47
67722;SHT31;58309;45.292;11.820;2022-11-09T02:38:41;10.39;86.20
67722;SHT31;58309;45.292;11.820;2022-11-09T02:41:08;10.39;86.31
67722;SHT31;58309;45.292;11.820;2022-11-09T02:43:35;10.40;86.37
67722;SHT31;58309;45.292;11.820;2022-11-09T02:46:02;10.40;86.15
67722;SHT31;58309;45.292;11.820;2022-11-09T02:48:28;10.39;86.05
67722;SHT31;58309;45.292;11.820;2022-11-09T02:50:53;10.40;86.06
67722;SHT31;58309;45.292;11.820;2022-11-09T02:53:19;10.39;85.85
67722;SHT31;58309;45.292;11.820;2022-11-09T02:55:44;10.40;86.44
67722;SHT31;58309;45.292;11.820;2022-11-09T02:58:10;10.43;86.09
67722;SHT31;58309;45.292;11.820;2022-11-09T03:00:35;10.44;86.13
67722;SHT31;58309;45.292;11.820;2022-11-09T03:03:02;10.46;85.43
67722;SHT31;58309;45.292;11.820;2022-11-09T03:05:28;10.49;85.66
67722;SHT31;58309;45.292;11.820;2022-11-09T03:07:53;10.51;85.27
67722;SHT31;58309;45.292;11.820;2022-11-09T03:10:19;10.54;85.73
67722;SHT31;58309;45.292;11.820;2022-11-09T03:12:44;10.57;85.52
67722;SHT31;58309;45.292;11.820;2022-11-09T03:15:10;10.57;85.69
67722;SHT31;58309;45.292;11.820;2022-11-09T03:17:35;10.57;85.35
67722;SHT31;58309;45.292;11.820;2022-11-09T03:20:01;10.60;85.47
67722;SHT31;58309;45.292;11.820;2022-11-09T03:22:27;10.63;86.23
67722;SHT31;58309;45.292;11.820;2022-11-09T03:24:53;10.64;86.23
67722;SHT31;58309;45.292;11.820;2022-11-09T03:27:18;10.63;85.54
67722;SHT31;58309;45.292;11.820;2022-11-09T03:29:44;10.63;86.42
67722;SHT31;58309;45.292;11.820;2022-11-09T03:32:09;10.64;86.24
67722;SHT31;58309;45.292;11.820;2022-11-09T03:34:35;10.61;85.70
67722;SHT31;58309;45.292;11.820;2022-11-09T03:37:00;10.60;86.00
67722;SHT31;58309;45.292;11.820;2022-11-09T03:39:26;10.63;86.47
67722;SHT31;58309;45.292;11.820;2022-11-09T03:41:52;10.57;85.89
67722;SHT31;58309;45.292;11.820;2022-11-09T03:44:17;10.53;86.07
67722;SHT31;58309;45.292;11.820;2022-11-09T03:46:44;10.49;86.45
67722;SHT31;58309;45.292;11.820;2022-11-09T03:49:10;10.47;86.32
67722;SHT31;58309;45.292;11.820;2022-11-09T03:51:36;10.47;86.95
67722;SHT31;58309;45.292;11.820;2022-11-09T03:54:01;10.46;86.80
67722;SHT31;58309;45.292;11.820;2022-11-09T03:56:27;10.47;86.36
67722;SHT31;58309;45.292;11.820;2022-11-09T03:58:53;10.47;87.15
67722;SHT31;58309;45.292;11.820;2022-11-09T04:01:18;10.40;86.88
67722;SHT31;58309;45.292;11.820;2022-11-09T04:03:44;10.43;86.47
67722;SHT31;58309;45.292;11.820;2022-11-09T04:06:09;10.42;86.66
67722;SHT31;58309;45.292;11.820;2022-11-09T04:08:35;10.42;87.30
67722;SHT31;58309;45.292;11.820;2022-11-09T04:11:00;10.43;86.83
67722;SHT31;58309;45.292;11.820;2022-11-09T04:13:26;10.43;86.79
67722;SHT31;58309;45.292;11.820;2022-11-09T04:15:51;10.49;87.08
67722;SHT31;58309;45.292;11.820;2022-11-09T04:18:17;10.47;86.31
67722;SHT31;58309;45.292;11.820;2022-11-09T04:20:43;10.51;86.24
67722;SHT31;58309;45.292;11.820;2022-11-09T04:23:10;10.54;85.80
67722;SHT31;58309;45.292;11.820;2022-11-09T04:25:38;10.56;86.09
67722;SHT31;58309;45.292;11.820;2022-11-09T04:28:05;10.59;85.93
67722;SHT31;58309;45.292;11.820;2022-11-09T04:30:33;10.54;85.75
67722;SHT31;58309;45.292;11.820;2022-11-09T04:32:59;10.56;85.23
67722;SHT31;58309;45.292;11.820;2022-11-09T04:35:26;10.61;85.43
67722;SHT31;58309;45.292;11.820;2022-11-09T04:37:58;10.57;85.46
67722;SHT31;58309;45.292;11.820;2022-11-09T04:40:25;10.60;85.54
67722;SHT31;58309;45.292;11.820;2022-11-09T04:42:51;10.59;86.20
67722;SHT31;58309;45.292;11.820;2022-11-09T04:45:16;10.59;86.18
67722;SHT31;58309;45.292;11.820;2022-11-09T04:47:42;10.56;86.54
67722;SHT31;58309;45.292;11.820;2022-11-09T04:50:08;10.57;86.68
67722;SHT31;58309;45.292;11.820;2022-11-09T04:52:34;10.56;86.53
67722;SHT31;58309;45.292;11.820;2022-11-09T04:54:59;10.54;86.49
67722;SHT31;58309;45.292;11.820;2022-11-09T04:57:25;10.54;86.39
67722;SHT31;58309;45.292;11.820;2022-11-09T04:59:50;10.54;86.33
67722;SHT31;58309;45.292;11.820;2022-11-09T05:02:15;10.54;87.00
67722;SHT31;58309;45.292;11.820;2022-11-09T05:04:41;10.56;86.17
67722;SHT31;58309;45.292;11.820;2022-11-09T05:07:07;10.57;86.31
67722;SHT31;58309;45.292;11.820;2022-11-09T05:09:32;10.59;86.22
67722;SHT31;58309;45.292;11.820;2022-11-09T05:11:57;10.60;86.30
67722;SHT31;58309;45.292;11.820;2022-11-09T05:14:23;10.59;86.67
67722;SHT31;58309;45.292;11.820;2022-11-09T05:16:48;10.59;86.90
67722;SHT31;58309;45.292;11.820;2022-11-09T05:19:14;10.60;86.30
67722;SHT31;58309;45.292;11.820;2022-11-09T05:21:40;10.60;86.29
67722;SHT31;58309;45.292;11.820;2022-11-09T05:24:06;10.64;86.65
67722;SHT31;58309;45.292;11.820;2022-11-09T05:26:32;10.63;86.35
67722;SHT31;58309;45.292;11.820;2022-11-09T05:28:59;10.65;86.44
67722;SHT31;58309;45.292;11.820;2022-11-09T05:31:26;10.64;86.76
67722;SHT31;58309;45.292;11.820;2022-11-09T05:33:52;10.68;86.45
67722;SHT31;58309;45.292;11.820;2022-11-09T05:36:18;10.67;86.24
67722;SHT31;58309;45.292;11.820;2022-11-09T05:38:45;10.67;85.62
67722;SHT31;58309;45.292;11.820;2022-11-09T05:41:10;10.73;86.29
67722;SHT31;58309;45.292;11.820;2022-11-09T05:43:36;10.71;86.54
67722;SHT31;58309;45.292;11.820;2022-11-09T05:46:02;10.71;86.33
67722;SHT31;58309;45.292;11.820;2022-11-09T05:48:28;10.74;86.38
67722;SHT31;58309;45.292;11.820;2022-11-09T05:50:53;10.71;85.99
67722;SHT31;58309;45.292;11.820;2022-11-09T05:53:18;10.70;85.75
67722;SHT31;58309;45.292;11.820;2022-11-09T05:55:44;10.75;86.09
67722;SHT31;58309;45.292;11.820;2022-11-09T05:58:09;10.75;85.81
67722;SHT31;58309;45.292;11.820;2022-11-09T06:00:35;10.75;86.19
67722;SHT31;58309;45.292;11.820;2022-11-09T06:03:05;10.75;85.31
67722;SHT31;58309;45.292;11.820;2022-11-09T06:05:32;10.80;85.86
67722;SHT31;58309;45.292;11.820;2022-11-09T06:08:06;10.82;85.78
67722;SHT31;58309;45.292;11.820;2022-11-09T06:10:32;10.82;86.95
67722;SHT31;58309;45.292;11.820;2022-11-09T06:12:58;10.84;85.84
67722;SHT31;58309;45.292;11.820;2022-11-09T06:15:23;10.87;85.82
67722;SHT31;58309;45.292;11.820;2022-11-09T06:17:53;10.88;85.57
67722;SHT31;58309;45.292;11.820;2022-11-09T06:20:19;10.90;85.43
67722;SHT31;58309;45.292;11.820;2022-11-09T06:22:54;10.94;84.95
67722;SHT31;58309;45.292;11.820;2022-11-09T06:25:20;10.94;84.40
67722;SHT31;58309;45.292;11.820;2022-11-09T06:27:46;11.01;85.30
67722;SHT31;58309;45.292;11.820;2022-11-09T06:30:13;11.01;84.97
67722;SHT31;58309;45.292;11.820;2022-11-09T06:32:38;11.00;85.04
67722;SHT31;58309;45.292;11.820;2022-11-09T06:35:04;11.05;85.16
67722;SHT31;58309;45.292;11.820;2022-11-09T06:37:30;11.11;85.51
67722;SHT31;58309;45.292;11.820;2022-11-09T06:39:55;11.12;85.76
67722;SHT31;58309;45.292;11.820;2022-11-09T06:42:21;11.15;85.76
67722;SHT31;58309;45.292;11.820;2022-11-09T06:44:46;11.18;85.80
67722;SHT31;58309;45.292;11.820;2022-11-09T06:47:11;11.18;85.19
67722;SHT31;58309;45.292;11.820;2022-11-09T06:49:37;11.19;85.68
67722;SHT31;58309;45.292;11.820;2022-11-09T06:52:02;11.23;84.58
67722;SHT31;58309;45.292;11.820;2022-11-09T06:54:28;11.31;85.02
67722;SHT31;58309;45.292;11.820;2022-11-09T06:56:54;11.33;84.37
67722;SHT31;58309;45.292;11.820;2022-11-09T06:59:20;11.36;84.11
67722;SHT31;58309;45.292;11.820;2022-11-09T07:01:45;11.43;84.20
67722;SHT31;58309;45.292;11.820;2022-11-09T07:04:12;11.46;84.03
67722;SHT31;58309;45.292;11.820;2022-11-09T07:06:39;11.51;83.56
67722;SHT31;58309;45.292;11.820;2022-11-09T07:09:05;11.55;83.87
67722;SHT31;58309;45.292;11.820;2022-11-09T07:11:31;11.60;83.38
67722;SHT31;58309;45.292;11.820;2022-11-09T07:13:56;11.67;83.10
67722;SHT31;58309;45.292;11.820;2022-11-09T07:16:22;11.76;83.12
67722;SHT31;58309;45.292;11.820;2022-11-09T07:18:47;11.80;82.25
67722;SHT31;58309;45.292;11.820;2022-11-09T07:21:13;11.83;82.96
67722;SHT31;58309;45.292;11.820;2022-11-09T07:23:39;11.89;83.88
67722;SHT31;58309;45.292;11.820;2022-11-09T07:26:04;11.90;83.39
67722;SHT31;58309;45.292;11.820;2022-11-09T07:28:30;11.93;83.56
67722;SHT31;58309;45.292;11.820;2022-11-09T07:30:59;11.94;83.54
67722;SHT31;58309;45.292;11.820;2022-11-09T07:33:24;11.95;84.39
67722;SHT31;58309;45.292;11.820;2022-11-09T07:35:50;11.93;84.32
67722;SHT31;58309;45.292;11.820;2022-11-09T07:38:16;11.95;84.76
67722;SHT31;58309;45.292;11.820;2022-11-09T07:40:44;11.98;84.79
67722;SHT31;58309;45.292;11.820;2022-11-09T07:43:11;11.95;83.35
67722;SHT31;58309;45.292;11.820;2022-11-09T07:45:37;11.95;82.89
67722;SHT31;58309;45.292;11.820;2022-11-09T07:48:05;11.98;82.94
67722;SHT31;58309;45.292;11.820;2022-11-09T07:50:32;12.03;83.68
67722;SHT31;58309;45.292;11.820;2022-11-09T07:52:59;12.08;83.07
67722;SHT31;58309;45.292;11.820;2022-11-09T07:55:27;12.08;83.88
67722;SHT31;58309;45.292;11.820;2022-11-09T07:57:56;12.10;84.68
67722;SHT31;58309;45.292;11.820;2022-11-09T08:00:22;12.14;84.80
67722;SHT31;58309;45.292;11.820;2022-11-09T08:02:48;12.17;85.27
67722;SHT31;58309;45.292;11.820;2022-11-09T08:05:14;12.10;85.12
67722;SHT31;58309;45.292;11.820;2022-11-09T08:07:40;12.14;85.59
67722;SHT31;58309;45.292;11.820;2022-11-09T08:10:05;12.21;85.27
67722;SHT31;58309;45.292;11.820;2022-11-09T08:12:31;12.23;84.65
67722;SHT31;58309;45.292;11.820;2022-11-09T08:14:56;12.30;84.21
67722;SHT31;58309;45.292;11.820;2022-11-09T08:17:22;12.41;84.04
67722;SHT31;58309;45.292;11.820;2022-11-09T08:19:47;12.49;83.86
67722;SHT31;58309;45.292;11.820;2022-11-09T08:22:13;12.61;83.98
67722;SHT31;58309;45.292;11.820;2022-11-09T08:24:38;12.72;83.41
67722;SHT31;58309;45.292;11.820;2022-11-09T08:27:04;12.78;83.61
67722;SHT31;58309;45.292;11.820;2022-11-09T08:29:29;12.85;84.17
67722;SHT31;58309;45.292;11.820;2022-11-09T08:31:55;12.88;84.07
67722;SHT31;58309;45.292;11.820;2022-11-09T08:34:20;12.88;84.07
67722;SHT31;58309;45.292;11.820;2022-11-09T08:36:46;12.89;82.82
67722;SHT31;58309;45.292;11.820;2022-11-09T08:39:11;12.91;83.44
67722;SHT31;58309;45.292;11.820;2022-11-09T08:41:37;12.95;82.95
67722;SHT31;58309;45.292;11.820;2022-11-09T08:44:02;13.02;82.85
67722;SHT31;58309;45.292;11.820;2022-11-09T08:46:28;12.99;82.49
67722;SHT31;58309;45.292;11.820;2022-11-09T08:48:54;13.00;83.26
67722;SHT31;58309;45.292;11.820;2022-11-09T08:51:19;13.04;82.85
67722;SHT31;58309;45.292;11.820;2022-11-09T08:53:45;13.14;83.05
67722;SHT31;58309;45.292;11.820;2022-11-09T08:56:10;13.20;82.29
67722;SHT31;58309;45.292;11.820;2022-11-09T08:58:37;13.22;81.53
67722;SHT31;58309;45.292;11.820;2022-11-09T09:01:07;13.39;81.69
67722;SHT31;58309;45.292;11.820;2022-11-09T09:03:33;13.48;81.40
67722;SHT31;58309;45.292;11.820;2022-11-09T09:06:05;13.65;81.93
67722;SHT31;58309;45.292;11.820;2022-11-09T09:08:31;13.61;79.91
67722;SHT31;58309;45.292;11.820;2022-11-09T09:10:56;13.51;79.78
67722;SHT31;58309;45.292;11.820;2022-11-09T09:13:22;13.47;79.17
67722;SHT31;58309;45.292;11.820;2022-11-09T09:15:48;13.54;79.75
67722;SHT31;58309;45.292;11.820;2022-11-09T09:18:14;13.70;79.82
67722;SHT31;58309;45.292;11.820;2022-11-09T09:20:40;13.75;78.55
67722;SHT31;58309;45.292;11.820;2022-11-09T09:23:05;13.85;77.68
67722;SHT31;58309;45.292;11.820;2022-11-09T09:25:31;13.94;77.07
67722;SHT31;58309;45.292;11.820;2022-11-09T09:27:56;14.19;76.53
67722;SHT31;58309;45.292;11.820;2022-11-09T09:30:22;14.43;75.52
67722;SHT31;58309;45.292;11.820;2022-11-09T09:32:48;14.72;75.15
67722;SHT31;58309;45.292;11.820;2022-11-09T09:35:13;14.93;75.13
67722;SHT31;58309;45.292;11.820;2022-11-09T09:37:39;14.94;74.14
67722;SHT31;58309;45.292;11.820;2022-11-09T09:40:05;14.81;73.82
67722;SHT31;58309;45.292;11.820;2022-11-09T09:42:35;14.83;74.94
67722;SHT31;58309;45.292;11.820;2022-11-09T09:45:04;14.91;73.11
67722;SHT31;58309;45.292;11.820;2022-11-09T09:48:13;15.07;72.17
67722;SHT31;58309;45.292;11.820;2022-11-09T09:50:45;15.41;71.40
67722;SHT31;58309;45.292;11.820;2022-11-09T09:53:31;15.46;71.44
67722;SHT31;58309;45.292;11.820;2022-11-09T09:56:13;15.35;71.53
67722;SHT31;58309;45.292;11.820;2022-11-09T09:58:46;15.39;72.50
67722;SHT31;58309;45.292;11.820;2022-11-09T10:01:17;15.24;71.43
67722;SHT31;58309;45.292;11.820;2022-11-09T10:03:45;15.15;70.16
67722;SHT31;58309;45.292;11.820;2022-11-09T10:09:18;15.53;69.90
67722;SHT31;58309;45.292;11.820;2022-11-09T10:17:21;15.56;68.95
67722;SHT31;58309;45.292;11.820;2022-11-09T10:19:56;15.55;69.03
67722;SHT31;58309;45.292;11.820;2022-11-09T10:22:30;15.52;70.96
67722;SHT31;58309;45.292;11.820;2022-11-09T10:27:33;15.56;70.38
67722;SHT31;58309;45.292;11.820;2022-11-09T10:30:00;15.51;69.58
67722;SHT31;58309;45.292;11.820;2022-11-09T10:32:29;15.28;71.20
67722;SHT31;58309;45.292;11.820;2022-11-09T10:37:38;15.15;75.21
67722;SHT31;58309;45.292;11.820;2022-11-09T10:42:32;15.15;75.17
67722;SHT31;58309;45.292;11.820;2022-11-09T10:44:58;15.12;73.40
67722;SHT31;58309;45.292;11.820;2022-11-09T10:47:26;15.34;73.06
67722;SHT31;58309;45.292;11.820;2022-11-09T10:50:06;15.70;71.56
67722;SHT31;58309;45.292;11.820;2022-11-09T10:52:34;16.03;72.06
67722;SHT31;58309;45.292;11.820;2022-11-09T10:55:22;16.28;70.18
67722;SHT31;58309;45.292;11.820;2022-11-09T10:57:55;16.60;70.99
67722;SHT31;58309;45.292;11.820;2022-11-09T11:00:21;16.74;69.85
67722;SHT31;58309;45.292;11.820;2022-11-09T11:02:47;16.78;68.31
67722;SHT31;58309;45.292;11.820;2022-11-09T11:07:44;16.50;70.64
67722;SHT31;58309;45.292;11.820;2022-11-09T11:12:51;16.71;68.78
67722;SHT31;58309;45.292;11.820;2022-11-09T11:18:03;18.49;64.24
67722;SHT31;58309;45.292;11.820;2022-11-09T11:20:34;20.27;60.29
67722;SHT31;58309;45.292;11.820;2022-11-09T11:23:12;20.47;56.36
67722;SHT31;58309;45.292;11.820;2022-11-09T11:28:20;21.89;54.95
67722;SHT31;58309;45.292;11.820;2022-11-09T11:30:48;21.53;54.17
67722;SHT31;58309;45.292;11.820;2022-11-09T11:33:15;21.62;54.64
67722;SHT31;58309;45.292;11.820;2022-11-09T11:47:17;19.47;60.86
67722;SHT31;58309;45.292;11.820;2022-11-09T11:50:04;20.06;59.51
67722;SHT31;58309;45.292;11.820;2022-11-09T11:53:02;20.78;56.36
67722;SHT31;58309;45.292;11.820;2022-11-09T12:04:15;19.66;60.54
67722;SHT31;58309;45.292;11.820;2022-11-09T12:12:39;18.80;63.90
67722;SHT31;58309;45.292;11.820;2022-11-09T12:15:33;18.11;66.68
67722;SHT31;58309;45.292;11.820;2022-11-09T12:18:17;17.87;66.41
67722;SHT31;58309;45.292;11.820;2022-11-09T12:29:19;17.18;71.43
67722;SHT31;58309;45.292;11.820;2022-11-09T12:34:44;16.89;71.75
67722;SHT31;58309;45.292;11.820;2022-11-09T12:37:18;16.95;72.68
67722;SHT31;58309;45.292;11.820;2022-11-09T12:39:54;16.76;72.84
67722;SHT31;58309;45.292;11.820;2022-11-09T12:42:28;16.62;73.78
67722;SHT31;58309;45.292;11.820;2022-11-09T12:45:12;16.48;75.05
67722;SHT31;58309;45.292;11.820;2022-11-09T12:47:42;16.38;74.65
67722;SHT31;58309;45.292;11.820;2022-11-09T12:50:27;16.21;75.65
67722;SHT31;58309;45.292;11.820;2022-11-09T12:52:53;16.16;75.49
67722;SHT31;58309;45.292;11.820;2022-11-09T12:58:22;16.12;76.24
67722;SHT31;58309;45.292;11.820;2022-11-09T13:00:50;15.97;76.21
67722;SHT31;58309;45.292;11.820;2022-11-09T13:03:23;15.90;76.49
67722;SHT31;58309;45.292;11.820;2022-11-09T13:06:12;15.83;76.51
67722;SHT31;58309;45.292;11.820;2022-11-09T13:08:38;15.86;77.04
67722;SHT31;58309;45.292;11.820;2022-11-09T13:11:10;15.99;76.61
67722;SHT31;58309;45.292;11.820;2022-11-09T13:13:42;16.03;76.54
67722;SHT31;58309;45.292;11.820;2022-11-09T13:16:09;16.12;76.44
67722;SHT31;58309;45.292;11.820;2022-11-09T13:23:52;16.24;77.78
67722;SHT31;58309;45.292;11.820;2022-11-09T13:45:26;16.34;80.93
67722;SHT31;58309;45.292;11.820;2022-11-09T13:47:53;16.30;79.86
67722;SHT31;58309;45.292;11.820;2022-11-09T13:50:24;16.24;80.02
67722;SHT31;58309;45.292;11.820;2022-11-09T13:52:51;16.21;80.58
67722;SHT31;58309;45.292;11.820;2022-11-09T13:55:28;16.13;80.76
67722;SHT31;58309;45.292;11.820;2022-11-09T13:57:58;16.06;81.09
67722;SHT31;58309;45.292;11.820;2022-11-09T14:00:25;16.03;81.14
67722;SHT31;58309;45.292;11.820;2022-11-09T14:03:00;16.00;81.10
67722;SHT31;58309;45.292;11.820;2022-11-09T14:05:33;15.96;81.33
67722;SHT31;58309;45.292;11.820;2022-11-09T14:08:01;15.94;81.64
67722;SHT31;58309;45.292;11.820;2022-11-09T14:10:41;16.00;81.86
67722;SHT31;58309;45.292;11.820;2022-11-09T14:13:34;15.96;81.72
67722;SHT31;58309;45.292;11.820;2022-11-09T14:21:52;15.86;82.96
67722;SHT31;58309;45.292;11.820;2022-11-09T14:24:25;15.78;82.91
67722;SHT31;58309;45.292;11.820;2022-11-09T14:27:11;15.72;83.29
67722;SHT31;58309;45.292;11.820;2022-11-09T14:29:56;15.65;83.94
67722;SHT31;58309;45.292;11.820;2022-11-09T14:32:31;15.63;84.02
67722;SHT31;58309;45.292;11.820;2022-11-09T14:35:32;15.58;83.96
67722;SHT31;58309;45.292;11.820;2022-11-09T14:37:59;15.56;84.47
67722;SHT31;58309;45.292;11.820;2022-11-09T14:40:30;15.52;84.39
67722;SHT31;58309;45.292;11.820;2022-11-09T14:45:49;15.46;84.26
67722;SHT31;58309;45.292;11.820;2022-11-09T14:48:17;15.49;84.44
67722;SHT31;58309;45.292;11.820;2022-11-09T14:50:43;15.51;84.78
67722;SHT31;58309;45.292;11.820;2022-11-09T14:53:14;15.51;84.98
67722;SHT31;58309;45.292;11.820;2022-11-09T14:55:40;15.52;84.98
67722;SHT31;58309;45.292;11.820;2022-11-09T14:58:11;15.49;85.33
67722;SHT31;58309;45.292;11.820;2022-11-09T15:00:39;15.45;84.56
67722;SHT31;58309;45.292;11.820;2022-11-09T15:03:27;15.42;84.37
67722;SHT31;58309;45.292;11.820;2022-11-09T15:06:10;15.36;84.59
67722;SHT31;58309;45.292;11.820;2022-11-09T15:08:44;15.38;84.89
67722;SHT31;58309;45.292;11.820;2022-11-09T15:11:12;15.35;85.63
67722;SHT31;58309;45.292;11.820;2022-11-09T15:13:39;15.27;85.06
67722;SHT31;58309;45.292;11.820;2022-11-09T15:16:06;15.25;85.25
67722;SHT31;58309;45.292;11.820;2022-11-09T15:18:42;15.20;85.64
67722;SHT31;58309;45.292;11.820;2022-11-09T15:21:16;15.15;85.50
67722;SHT31;58309;45.292;11.820;2022-11-09T15:23:44;15.11;85.87
67722;SHT31;58309;45.292;11.820;2022-11-09T15:26:25;15.07;86.10
67722;SHT31;58309;45.292;11.820;2022-11-09T15:28:51;15.03;86.51
67722;SHT31;58309;45.292;11.820;2022-11-09T15:31:17;14.98;86.80
67722;SHT31;58309;45.292;11.820;2022-11-09T15:33:50;14.93;86.99
67722;SHT31;58309;45.292;11.820;2022-11-09T15:36:30;14.85;87.11
67722;SHT31;58309;45.292;11.820;2022-11-09T15:39:15;14.81;87.18
67722;SHT31;58309;45.292;11.820;2022-11-09T15:41:41;14.74;87.41
67722;SHT31;58309;45.292;11.820;2022-11-09T15:44:07;14.70;87.88
67722;SHT31;58309;45.292;11.820;2022-11-09T15:46:45;14.62;88.04
67722;SHT31;58309;45.292;11.820;2022-11-09T15:49:21;14.59;88.31
67722;SHT31;58309;45.292;11.820;2022-11-09T15:51:47;14.52;89.19
67722;SHT31;58309;45.292;11.820;2022-11-09T15:54:14;14.44;89.63
67722;SHT31;58309;45.292;11.820;2022-11-09T15:56:40;14.36;89.71
67722;SHT31;58309;45.292;11.820;2022-11-09T15:59:07;14.34;89.54
67722;SHT31;58309;45.292;11.820;2022-11-09T16:01:36;14.32;89.73
67722;SHT31;58309;45.292;11.820;2022-11-09T16:04:04;14.23;90.39
67722;SHT31;58309;45.292;11.820;2022-11-09T16:06:29;14.18;90.39
67722;SHT31;58309;45.292;11.820;2022-11-09T16:08:55;14.13;90.53
67722;SHT31;58309;45.292;11.820;2022-11-09T16:11:20;14.05;90.89
67722;SHT31;58309;45.292;11.820;2022-11-09T16:13:46;14.00;90.84
67722;SHT31;58309;45.292;11.820;2022-11-09T16:16:13;13.95;91.04
67722;SHT31;58309;45.292;11.820;2022-11-09T16:18:39;13.95;91.85
67722;SHT31;58309;45.292;11.820;2022-11-09T16:21:09;13.91;91.94
67722;SHT31;58309;45.292;11.820;2022-11-09T16:23:36;13.94;92.01
67722;SHT31;58309;45.292;11.820;2022-11-09T16:26:07;13.92;92.06
67722;SHT31;58309;45.292;11.820;2022-11-09T16:28:33;13.89;91.84
67722;SHT31;58309;45.292;11.820;2022-11-09T16:30:59;13.94;92.48
67722;SHT31;58309;45.292;11.820;2022-11-09T16:33:24;13.92;92.18
67722;SHT31;58309;45.292;11.820;2022-11-09T16:35:50;13.88;92.20
67722;SHT31;58309;45.292;11.820;2022-11-09T16:38:16;13.86;92.08
67722;SHT31;58309;45.292;11.820;2022-11-09T16:40:42;13.82;92.09
67722;SHT31;58309;45.292;11.820;2022-11-09T16:43:08;13.81;92.91
67722;SHT31;58309;45.292;11.820;2022-11-09T16:45:44;13.81;92.51
67722;SHT31;58309;45.292;11.820;2022-11-09T16:48:11;13.81;92.30
67722;SHT31;58309;45.292;11.820;2022-11-09T16:50:38;13.88;91.98
67722;SHT31;58309;45.292;11.820;2022-11-09T16:53:03;13.91;91.82
67722;SHT31;58309;45.292;11.820;2022-11-09T16:55:31;13.86;91.85
67722;SHT31;58309;45.292;11.820;2022-11-09T16:57:56;13.84;91.93
67722;SHT31;58309;45.292;11.820;2022-11-09T17:00:23;13.78;92.10
67722;SHT31;58309;45.292;11.820;2022-11-09T17:02:49;13.74;92.29
67722;SHT31;58309;45.292;11.820;2022-11-09T17:05:14;13.68;92.32
67722;SHT31;58309;45.292;11.820;2022-11-09T17:07:40;13.64;92.55
67722;SHT31;58309;45.292;11.820;2022-11-09T17:10:06;13.63;92.99